Terminal Aerodrome Forecast
Issued by NWS Greer, SC

Home | Current Version | Previous Version | Text Only | Print | Product List | Glossary On
Versions: 1 2 3 4 5 6 7 8 9 10 11 12 13 14 15 16 17 18 19 20 21
989
FTUS42 KGSP 061342 AAA
TAFGSP
TAF AMD
KGSP 061342Z 0614/0712 05012G18KT 3SM -RA BR OVC005
      TEMPO 0614/0616 2SM -RA BR BKN007
     FM061600 05009KT 3SM -RA BR OVC003
     FM061900 03005KT 4SM BR OVC015
     FM070200 28004KT 2SM BR BKN015
     FM070500 29003KT 2SM BR SCT250=

USA.gov is the U.S. government's official web portal to all federal, state and local government web resources and services.